Time;durP1;ratioP1;P1;durP2;ratioP2;P2;SDS_P1;SDS_P2;PMS_P1;PMS_P2;Temp;Humidity;BMP_temperature;BMP_pressure;BME280_temperature;BME280_humidity;BME280_pressure;Samples;Min_cycle;Max_cycle;Signal;HPM_P1;HPM_P2
2024/03/19 00:00:49;;;;;;;95.10;12.35;;;13.50;99.90;;;;;;5008285;28;20049;-56
2024/03/19 00:03:14;;;;;;;61.63;11.25;;;13.50;99.90;;;;;;4991711;28;20398;-55
2024/03/19 00:05:41;;;;;;;66.50;11.65;;;13.50;99.90;;;;;;5007860;28;20124;-55
2024/03/19 00:08:06;;;;;;;71.10;10.32;;;13.50;99.90;;;;;;5008079;28;20075;-56
2024/03/19 00:10:32;;;;;;;84.30;12.45;;;13.40;99.90;;;;;;5008006;28;20046;-55
2024/03/19 00:12:58;;;;;;;63.97;10.45;;;13.40;99.90;;;;;;5006951;28;20056;-55
2024/03/19 00:15:24;;;;;;;63.78;10.55;;;13.40;99.90;;;;;;5007796;28;20037;-55
2024/03/19 00:17:50;;;;;;;58.10;11.20;;;13.40;99.90;;;;;;5007635;28;20121;-56
2024/03/19 00:20:16;;;;;;;67.32;10.20;;;13.40;99.90;;;;;;4991506;28;20083;-56
2024/03/19 00:22:41;;;;;;;54.75;10.50;;;13.40;99.90;;;;;;5007753;28;20113;-56
2024/03/19 00:25:07;;;;;;;57.42;9.73;;;13.40;99.90;;;;;;5007789;28;20030;-56
2024/03/19 00:27:33;;;;;;;60.85;10.40;;;13.40;99.90;;;;;;5007386;28;20088;-55
2024/03/19 00:30:00;;;;;;;44.72;9.73;;;13.40;99.90;;;;;;5007595;28;20087;-55
2024/03/19 00:32:31;;;;;;;56.03;9.43;;;13.40;99.90;;;;;;4991530;28;20133;-55
2024/03/19 00:34:57;;;;;;;56.08;8.75;;;13.30;99.90;;;;;;5008266;28;20113;-56
2024/03/19 00:37:23;;;;;;;52.53;9.52;;;13.30;99.90;;;;;;5025208;28;20056;-56
2024/03/19 00:39:49;;;;;;;46.95;10.68;;;13.30;99.90;;;;;;5007473;28;20084;-55
2024/03/19 00:42:14;;;;;;;48.33;8.88;;;13.30;99.90;;;;;;5025096;28;20156;-55
2024/03/19 00:44:40;;;;;;;47.55;9.10;;;13.30;99.90;;;;;;5007269;28;20418;-56
2024/03/19 00:47:06;;;;;;;59.47;9.50;;;13.30;99.90;;;;;;5007064;28;20034;-55
2024/03/19 00:49:31;;;;;;;46.25;9.23;;;13.20;99.90;;;;;;5024876;28;20030;-56
2024/03/19 00:51:57;;;;;;;44.92;7.72;;;13.20;99.90;;;;;;5024841;28;20052;-55
2024/03/19 00:54:22;;;;;;;48.75;8.93;;;13.20;99.90;;;;;;5006792;28;20048;-56
2024/03/19 00:56:48;;;;;;;35.58;9.00;;;13.20;99.90;;;;;;4990592;28;20029;-56
2024/03/19 00:59:14;;;;;;;53.55;8.52;;;13.20;99.90;;;;;;5024680;28;20037;-55
2024/03/19 01:01:39;;;;;;;43.80;9.00;;;13.20;99.90;;;;;;4990807;28;20069;-55
2024/03/19 01:04:05;;;;;;;43.13;7.57;;;13.20;99.90;;;;;;5024813;28;20100;-55
2024/03/19 01:06:37;;;;;;;45.97;8.15;;;13.20;99.90;;;;;;5006507;28;20069;-56
2024/03/19 01:09:05;;;;;;;45.67;7.80;;;13.20;99.90;;;;;;5024601;28;20057;-56
2024/03/19 01:11:32;;;;;;;41.60;7.72;;;13.10;99.90;;;;;;4974908;28;20067;-56
2024/03/19 01:13:59;;;;;;;62.85;8.95;;;13.20;99.90;;;;;;5007070;28;20026;-56
2024/03/19 01:16:25;;;;;;;43.70;7.80;;;13.10;99.90;;;;;;4990668;28;20037;-55
2024/03/19 01:18:50;;;;;;;37.55;7.25;;;13.10;99.90;;;;;;5006634;28;20026;-56
2024/03/19 01:21:16;;;;;;;44.00;8.43;;;13.10;99.90;;;;;;5024239;28;20029;-56
2024/03/19 01:23:42;;;;;;;35.78;7.93;;;13.10;99.90;;;;;;4990172;28;20026;-55
2024/03/19 01:26:07;;;;;;;29.45;6.30;;;13.10;99.90;;;;;;4974273;28;20041;-55
2024/03/19 01:28:33;;;;;;;31.98;7.60;;;13.10;99.90;;;;;;5006558;28;20056;-56
2024/03/19 01:30:58;;;;;;;38.03;8.10;;;13.10;99.90;;;;;;5006774;28;20107;-56
2024/03/19 01:33:24;;;;;;;39.92;6.72;;;13.10;99.90;;;;;;5024612;28;20034;-56
2024/03/19 01:35:50;;;;;;;31.05;7.53;;;13.10;99.90;;;;;;4974523;28;20105;-56
2024/03/19 01:38:15;;;;;;;40.47;7.55;;;13.00;99.90;;;;;;5006511;28;20029;-56
2024/03/19 01:40:46;;;;;;;38.08;7.00;;;13.10;99.90;;;;;;5024363;28;20034;-56
2024/03/19 01:43:12;;;;;;;33.58;6.95;;;13.10;99.90;;;;;;5024546;28;20484;-56
2024/03/19 01:45:38;;;;;;;39.85;6.65;;;13.00;99.90;;;;;;5006672;28;20030;-55
2024/03/19 01:48:04;;;;;;;25.23;6.03;;;13.00;99.90;;;;;;4990258;28;20041;-56
2024/03/19 01:50:29;;;;;;;33.25;7.05;;;13.00;99.90;;;;;;5006624;28;20026;-56
2024/03/19 01:52:55;;;;;;;25.23;5.85;;;13.00;99.90;;;;;;5006427;28;20104;-56
2024/03/19 01:55:22;;;;;;;28.48;6.38;;;13.00;99.90;;;;;;4990133;28;20030;-56
2024/03/19 01:57:48;;;;;;;31.95;6.65;;;13.00;99.90;;;;;;5006411;28;20056;-56
2024/03/19 02:00:14;;;;;;;29.73;6.78;;;12.90;99.90;;;;;;4990202;28;20050;-56
2024/03/19 02:02:39;;;;;;;33.00;6.10;;;12.90;99.90;;;;;;4990355;28;20049;-56
2024/03/19 02:05:06;;;;;;;24.90;6.03;;;12.90;99.90;;;;;;5024097;28;20339;-56
2024/03/19 02:07:32;;;;;;;27.10;5.90;;;12.90;99.90;;;;;;4990146;28;20109;-55
2024/03/19 02:09:58;;;;;;;22.42;5.90;;;12.90;99.90;;;;;;4990118;28;20521;-55
2024/03/19 02:12:24;;;;;;;33.10;6.00;;;12.90;99.90;;;;;;4990129;28;20085;-56
2024/03/19 02:14:50;;;;;;;29.98;5.78;;;12.90;99.90;;;;;;5006297;28;20034;-55
2024/03/19 02:17:16;;;;;;;22.60;5.10;;;12.90;99.90;;;;;;4989987;28;20113;-55
2024/03/19 02:19:43;;;;;;;24.38;5.88;;;12.80;99.90;;;;;;5006004;28;20085;-55
2024/03/19 02:22:09;;;;;;;27.58;6.05;;;12.90;99.90;;;;;;5023964;28;20022;-55
2024/03/19 02:24:36;;;;;;;22.45;4.80;;;12.90;99.90;;;;;;4990264;28;20029;-56
2024/03/19 02:27:02;;;;;;;31.27;5.22;;;12.80;99.90;;;;;;4990043;28;20041;-55
2024/03/19 02:29:28;;;;;;;18.27;5.25;;;12.80;99.90;;;;;;4989923;28;20034;-56
2024/03/19 02:31:53;;;;;;;25.73;5.20;;;12.80;99.90;;;;;;5023800;28;20072;-56
2024/03/19 02:34:19;;;;;;;22.65;4.88;;;12.80;99.90;;;;;;5023956;28;20065;-55
2024/03/19 02:36:45;;;;;;;20.15;5.03;;;12.80;99.90;;;;;;5009629;28;20049;-56
2024/03/19 02:39:12;;;;;;;23.02;5.93;;;12.80;99.90;;;;;;5027509;28;20033;-55
2024/03/19 02:41:41;;;;;;;21.25;5.35;;;12.80;99.90;;;;;;4993876;28;20033;-57
2024/03/19 02:44:07;;;;;;;27.40;5.25;;;12.70;99.90;;;;;;5009654;28;20033;-56
2024/03/19 02:46:32;;;;;;;22.10;4.90;;;12.70;99.90;;;;;;5009402;28;20022;-58
2024/03/19 02:48:58;;;;;;;18.02;4.25;;;12.70;99.90;;;;;;4993266;28;20044;-59
2024/03/19 02:51:24;;;;;;;22.77;4.50;;;12.70;99.90;;;;;;5009400;28;20081;-58
2024/03/19 02:53:50;;;;;;;20.33;4.72;;;12.70;99.90;;;;;;4993125;28;20038;-59
2024/03/19 02:56:16;;;;;;;27.52;6.35;;;12.70;99.90;;;;;;4993581;28;20080;-59
2024/03/19 02:58:41;;;;;;;21.08;4.78;;;12.70;99.90;;;;;;5009112;28;20026;-59
2024/03/19 03:01:07;;;;;;;16.85;4.32;;;12.70;99.90;;;;;;4993079;28;20028;-59
2024/03/19 03:03:33;;;;;;;20.23;4.65;;;12.60;99.90;;;;;;5009263;28;20022;-59
2024/03/19 03:05:59;;;;;;;25.77;4.55;;;12.60;99.90;;;;;;5009095;28;20036;-59
2024/03/19 03:08:26;;;;;;;17.00;4.63;;;12.60;99.90;;;;;;4976877;28;20084;-59
2024/03/19 03:10:52;;;;;;;15.27;3.97;;;12.60;99.90;;;;;;5009023;28;20073;-58
2024/03/19 03:13:17;;;;;;;20.30;4.45;;;12.60;99.90;;;;;;4992909;28;20042;-58
2024/03/19 03:15:43;;;;;;;15.05;4.15;;;12.50;99.90;;;;;;4992458;28;20053;-59
2024/03/19 03:18:10;;;;;;;13.63;4.47;;;12.50;99.90;;;;;;5026681;28;20029;-59
2024/03/19 03:20:36;;;;;;;22.45;4.70;;;12.50;99.90;;;;;;5026582;28;20044;-59
2024/03/19 03:23:02;;;;;;;20.42;4.75;;;12.50;99.90;;;;;;5009032;28;20018;-59
2024/03/19 03:25:29;;;;;;;14.27;4.20;;;12.50;99.90;;;;;;5008710;28;20029;-59
2024/03/19 03:27:54;;;;;;;16.95;4.45;;;12.50;99.90;;;;;;5026770;28;20393;-58
2024/03/19 03:30:21;;;;;;;18.85;4.03;;;12.50;99.90;;;;;;5026498;28;20058;-59
2024/03/19 03:32:47;;;;;;;16.90;4.00;;;12.50;99.90;;;;;;5026414;28;20041;-58
2024/03/19 03:35:15;;;;;;;14.98;4.15;;;12.50;99.90;;;;;;5008721;28;20034;-59
2024/03/19 03:37:41;;;;;;;18.65;4.15;;;12.50;99.90;;;;;;5008894;28;20100;-59
2024/03/19 03:40:19;;;;;;;20.42;5.18;;;12.40;99.90;;;;;;5008874;28;20469;-59
2024/03/19 03:42:45;;;;;;;15.07;3.90;;;12.40;99.90;;;;;;5026318;28;20022;-59
2024/03/19 03:45:11;;;;;;;18.50;3.92;;;12.40;99.90;;;;;;5008725;28;20030;-58
2024/03/19 03:47:37;;;;;;;11.93;3.50;;;12.40;99.90;;;;;;5007171;28;20033;-59
2024/03/19 03:50:04;;;;;;;13.20;3.67;;;12.40;99.90;;;;;;5008376;28;20034;-58
2024/03/19 03:52:32;;;;;;;15.32;3.83;;;12.40;99.90;;;;;;5025918;28;20244;-59
2024/03/19 03:55:00;;;;;;;15.32;3.58;;;12.30;99.90;;;;;;5008649;28;20050;-59
2024/03/19 03:57:25;;;;;;;17.13;4.22;;;12.30;99.90;;;;;;5008256;28;20061;-59
2024/03/19 03:59:51;;;;;;;11.65;4.07;;;12.30;99.90;;;;;;5008093;28;20037;-59
2024/03/19 04:02:17;;;;;;;12.50;3.70;;;12.30;99.90;;;;;;5025867;28;20040;-59
2024/03/19 04:04:42;;;;;;;14.73;3.40;;;12.30;99.90;;;;;;5008032;28;20046;-59
2024/03/19 04:07:08;;;;;;;11.32;4.00;;;12.30;99.90;;;;;;5025768;28;20385;-59
2024/03/19 04:09:34;;;;;;;13.73;4.35;;;12.30;99.90;;;;;;5008098;28;20080;-58
2024/03/19 04:12:00;;;;;;;12.30;4.13;;;12.30;99.90;;;;;;5007785;28;20030;-59
2024/03/19 04:14:26;;;;;;;13.48;3.85;;;12.30;99.90;;;;;;5008019;28;20370;-59
2024/03/19 04:16:51;;;;;;;10.40;3.80;;;12.20;99.90;;;;;;5007749;28;20069;-59
2024/03/19 04:19:17;;;;;;;15.05;3.78;;;12.20;99.90;;;;;;4991630;28;20022;-58
2024/03/19 04:21:43;;;;;;;11.75;4.03;;;12.20;99.90;;;;;;5007790;28;20056;-59
2024/03/19 04:24:09;;;;;;;13.02;3.70;;;12.20;99.90;;;;;;5007844;28;20030;-59
2024/03/19 04:26:36;;;;;;;11.30;3.80;;;12.20;99.90;;;;;;4991240;28;20068;-58
2024/03/19 04:29:03;;;;;;;11.25;3.45;;;12.20;99.90;;;;;;5007902;28;20041;-58
2024/03/19 04:31:28;;;;;;;10.07;3.83;;;12.20;99.90;;;;;;5025117;28;20029;-59
2024/03/19 04:33:54;;;;;;;11.82;3.70;;;12.20;99.90;;;;;;5007474;28;20033;-59
2024/03/19 04:36:20;;;;;;;12.88;3.47;;;12.10;99.90;;;;;;5025114;28;20492;-58
2024/03/19 04:38:45;;;;;;;16.08;4.07;;;12.10;99.90;;;;;;5025152;28;20037;-59
2024/03/19 04:41:12;;;;;;;11.32;3.58;;;12.10;99.90;;;;;;5032681;28;20025;-59
2024/03/19 04:43:37;;;;;;;12.00;3.80;;;12.10;99.90;;;;;;5009062;28;20033;-59
2024/03/19 04:46:03;;;;;;;9.55;3.22;;;12.10;99.90;;;;;;5044711;28;20033;-58
2024/03/19 04:48:29;;;;;;;12.20;3.63;;;12.10;99.90;;;;;;5026998;28;20036;-59
2024/03/19 04:50:54;;;;;;;10.18;2.88;;;12.10;99.90;;;;;;5044686;28;20037;-59
2024/03/19 04:53:20;;;;;;;9.70;4.10;;;12.10;99.90;;;;;;5026704;28;20025;-59
2024/03/19 04:55:45;;;;;;;9.73;3.85;;;12.10;99.90;;;;;;5044421;28;20033;-58
2024/03/19 04:58:11;;;;;;;12.70;3.80;;;12.10;99.90;;;;;;5044402;28;20086;-59
2024/03/19 05:00:37;;;;;;;11.77;4.10;;;12.10;99.90;;;;;;5026895;28;20175;-58
2024/03/19 05:03:03;;;;;;;13.38;3.95;;;12.10;99.90;;;;;;5010353;28;20030;-59
2024/03/19 05:05:28;;;;;;;9.35;4.03;;;12.10;99.90;;;;;;5044592;28;20032;-59
2024/03/19 05:07:54;;;;;;;8.05;3.65;;;12.10;99.90;;;;;;5044106;28;20048;-59
2024/03/19 05:10:19;;;;;;;9.15;3.50;;;12.10;99.90;;;;;;5044475;28;20029;-59
2024/03/19 05:12:45;;;;;;;7.38;3.60;;;12.10;99.90;;;;;;5026511;28;20033;-59
2024/03/19 05:15:11;;;;;;;9.25;3.75;;;12.00;99.90;;;;;;5044235;28;20052;-59
2024/03/19 05:17:36;;;;;;;10.13;3.92;;;12.00;99.90;;;;;;5044389;28;20037;-59
2024/03/19 05:20:02;;;;;;;8.25;3.53;;;12.00;99.90;;;;;;5010072;28;20022;-59
2024/03/19 05:22:28;;;;;;;10.82;4.13;;;12.10;99.90;;;;;;5026356;28;20018;-59
2024/03/19 05:24:53;;;;;;;11.85;4.72;;;12.00;99.90;;;;;;5010183;28;20460;-59
2024/03/19 05:27:19;;;;;;;12.07;4.60;;;12.10;99.90;;;;;;4993648;28;20167;-59
2024/03/19 05:29:45;;;;;;;12.27;5.70;;;12.00;99.90;;;;;;5026089;28;20068;-58
2024/03/19 05:32:10;;;;;;;12.07;5.15;;;12.00;99.90;;;;;;5026283;28;20041;-59
2024/03/19 05:34:36;;;;;;;12.95;5.22;;;12.00;99.90;;;;;;5026296;28;20091;-58
2024/03/19 05:37:02;;;;;;;9.20;4.38;;;12.10;99.90;;;;;;5025975;28;20029;-59
2024/03/19 05:39:28;;;;;;;8.80;5.15;;;12.00;99.90;;;;;;5026150;28;20036;-59
2024/03/19 05:41:53;;;;;;;11.88;5.15;;;12.00;99.90;;;;;;5026131;28;20034;-59
2024/03/19 05:44:19;;;;;;;14.02;5.03;;;12.00;99.90;;;;;;5026068;28;20044;-59
2024/03/19 05:46:44;;;;;;;17.80;5.85;;;12.00;99.90;;;;;;5043966;28;20029;-59
2024/03/19 05:49:11;;;;;;;14.35;5.65;;;12.00;99.90;;;;;;5009775;28;20037;-59
2024/03/19 05:51:37;;;;;;;14.65;5.55;;;12.00;99.90;;;;;;5043843;28;20021;-58
2024/03/19 05:54:02;;;;;;;11.48;4.85;;;12.00;99.90;;;;;;5025728;28;20082;-58
2024/03/19 05:56:28;;;;;;;13.52;5.38;;;12.00;99.90;;;;;;5009791;28;20372;-59
2024/03/19 05:58:54;;;;;;;14.57;5.82;;;12.00;99.90;;;;;;5009594;28;20391;-58
2024/03/19 06:01:19;;;;;;;10.90;5.47;;;12.00;99.90;;;;;;5043739;28;20025;-58
2024/03/19 06:03:45;;;;;;;11.85;4.65;;;12.00;99.90;;;;;;5043743;28;20038;-59
2024/03/19 06:06:11;;;;;;;22.13;5.53;;;12.00;99.90;;;;;;5043721;28;20383;-58
2024/03/19 06:08:37;;;;;;;16.70;5.82;;;12.00;99.90;;;;;;5009534;28;20041;-58
2024/03/19 06:11:03;;;;;;;22.17;6.28;;;12.00;99.90;;;;;;5012399;28;20108;-58
2024/03/19 06:13:28;;;;;;;27.55;6.18;;;12.00;99.90;;;;;;5047658;28;20034;-58
2024/03/19 06:15:54;;;;;;;40.88;7.70;;;12.00;99.90;;;;;;5029536;28;20033;-58
2024/03/19 06:18:21;;;;;;;37.40;7.13;;;12.10;99.90;;;;;;5013380;28;20026;-58
2024/03/19 06:20:46;;;;;;;30.65;7.40;;;12.10;99.90;;;;;;5013442;28;20034;-58
2024/03/19 06:23:12;;;;;;;34.83;7.40;;;12.00;99.90;;;;;;5047627;28;20081;-59
2024/03/19 06:25:41;;;;;;;58.05;10.18;;;12.10;99.90;;;;;;5012997;28;20035;-58
2024/03/19 06:28:06;;;;;;;107.13;13.55;;;12.10;99.90;;;;;;5047445;28;20025;-58
2024/03/19 06:30:32;;;;;;;63.65;9.35;;;12.10;99.90;;;;;;5028774;28;20044;-58
2024/03/19 06:32:58;;;;;;;51.05;10.88;;;12.10;99.90;;;;;;5012974;28;20032;-58
2024/03/19 06:35:24;;;;;;;67.47;9.65;;;12.10;99.90;;;;;;5047112;28;20034;-58
2024/03/19 06:37:51;;;;;;;48.75;9.60;;;12.10;99.90;;;;;;5013040;28;20055;-59
2024/03/19 06:40:17;;;;;;;48.40;9.02;;;12.10;99.90;;;;;;5047112;28;20378;-58
2024/03/19 06:42:43;;;;;;;52.38;10.60;;;12.10;99.90;;;;;;5047126;28;20021;-59
2024/03/19 06:45:08;;;;;;;56.60;11.10;;;12.10;99.90;;;;;;5012778;28;20087;-59
2024/03/19 06:47:35;;;;;;;43.50;9.43;;;12.10;99.90;;;;;;5046914;28;20093;-58
2024/03/19 06:50:06;;;;;;;52.30;8.63;;;12.10;99.90;;;;;;5029292;28;20036;-59
2024/03/19 06:52:35;;;;;;;32.53;8.75;;;12.10;99.90;;;;;;5029933;28;20036;-59
2024/03/19 06:55:01;;;;;;;46.40;9.75;;;12.10;99.90;;;;;;5029200;28;20075;-59
2024/03/19 06:57:31;;;;;;;41.53;10.15;;;12.10;99.90;;;;;;5028703;28;20402;-59
2024/03/19 06:59:57;;;;;;;39.45;9.13;;;12.10;99.90;;;;;;4996709;28;20026;-59
2024/03/19 07:02:29;;;;;;;48.75;9.90;;;12.10;99.90;;;;;;4996472;28;20029;-59
2024/03/19 07:04:55;;;;;;;42.03;9.55;;;12.10;99.90;;;;;;5028881;28;20120;-58
2024/03/19 07:07:22;;;;;;;38.97;9.63;;;12.10;99.90;;;;;;5028918;28;20036;-56
2024/03/19 07:09:52;;;;;;;44.67;9.98;;;12.10;99.90;;;;;;4996437;28;20029;-56
2024/03/19 07:12:18;;;;;;;48.05;10.50;;;12.10;99.90;;;;;;5013352;28;20089;-56
2024/03/19 07:14:44;;;;;;;36.75;8.60;;;12.10;99.90;;;;;;5028850;28;20041;-56
2024/03/19 07:17:10;;;;;;;35.03;9.80;;;12.10;99.90;;;;;;5046270;28;20078;-55
2024/03/19 07:19:36;;;;;;;41.05;9.43;;;12.10;99.90;;;;;;5022539;28;20034;-56
2024/03/19 07:22:03;;;;;;;34.55;10.07;;;12.10;99.90;;;;;;5005478;28;20034;-56
2024/03/19 07:24:29;;;;;;;39.30;9.52;;;12.10;99.90;;;;;;4989332;28;20045;-55
2024/03/19 07:26:55;;;;;;;38.00;9.07;;;12.10;99.90;;;;;;5011272;28;20038;-56
2024/03/19 07:29:20;;;;;;;33.80;9.48;;;12.10;99.90;;;;;;5006834;28;20034;-56
2024/03/19 07:31:47;;;;;;;31.48;9.25;;;12.10;99.90;;;;;;4988798;28;20030;-56
2024/03/19 07:34:13;;;;;;;47.97;9.27;;;12.10;99.90;;;;;;5016391;28;20126;-56
2024/03/19 07:36:39;;;;;;;34.50;9.45;;;12.10;99.90;;;;;;5039033;28;20507;-56
2024/03/19 07:39:11;;;;;;;36.50;8.75;;;12.10;99.90;;;;;;5024439;28;20086;-56
2024/03/19 07:41:40;;;;;;;27.67;8.63;;;12.10;99.90;;;;;;5023651;28;20495;-55
2024/03/19 07:44:07;;;;;;;30.75;8.73;;;12.20;99.90;;;;;;5024424;28;20034;-56
2024/03/19 07:46:32;;;;;;;25.58;8.43;;;12.20;99.90;;;;;;5039651;28;20045;-56
2024/03/19 07:48:59;;;;;;;28.02;7.60;;;12.20;99.90;;;;;;5022767;28;20381;-56
2024/03/19 07:51:26;;;;;;;26.05;7.90;;;12.20;99.90;;;;;;5007807;28;20053;-56
2024/03/19 07:53:51;;;;;;;27.10;7.97;;;12.20;99.90;;;;;;5040727;28;20053;-56
2024/03/19 07:56:17;;;;;;;30.45;8.48;;;12.20;99.90;;;;;;5024304;28;20046;-56
2024/03/19 07:58:43;;;;;;;29.05;7.72;;;12.20;99.90;;;;;;5025988;28;20029;-56
2024/03/19 08:01:08;;;;;;;21.42;7.90;;;12.20;99.90;;;;;;5041008;28;20033;-56
2024/03/19 08:03:35;;;;;;;23.08;7.72;;;12.30;99.90;;;;;;5024373;28;20045;-56
2024/03/19 08:06:01;;;;;;;41.97;8.82;;;12.30;99.90;;;;;;5024154;28;20041;-56
2024/03/19 08:08:27;;;;;;;34.88;8.63;;;12.30;99.90;;;;;;5024006;28;20038;-56
2024/03/19 08:10:53;;;;;;;28.05;8.32;;;12.30;99.90;;;;;;5011655;28;20054;-56
2024/03/19 08:13:20;;;;;;;29.38;9.27;;;12.40;99.90;;;;;;5020781;28;20098;-56
2024/03/19 08:15:46;;;;;;;22.83;7.15;;;12.40;99.90;;;;;;5006165;28;20030;-56
2024/03/19 08:18:13;;;;;;;22.88;8.05;;;12.40;99.90;;;;;;4991440;28;20026;-56
2024/03/19 08:20:41;;;;;;;19.52;6.70;;;12.40;99.90;;;;;;5007765;28;20323;-56
2024/03/19 08:23:07;;;;;;;21.88;7.22;;;12.40;99.90;;;;;;4991723;28;20049;-56
2024/03/19 08:25:33;;;;;;;28.65;6.80;;;12.50;99.90;;;;;;4991701;28;20127;-56
2024/03/19 08:27:58;;;;;;;20.20;6.28;;;12.50;99.90;;;;;;5007655;28;20026;-56
2024/03/19 08:30:24;;;;;;;18.63;6.63;;;12.50;99.90;;;;;;5025192;28;20065;-56
2024/03/19 08:32:51;;;;;;;20.65;6.50;;;12.50;99.90;;;;;;5006852;28;20034;-56
2024/03/19 08:35:17;;;;;;;36.47;8.35;;;12.50;99.90;;;;;;5007719;28;20497;-56
2024/03/19 08:37:43;;;;;;;44.72;8.57;;;12.60;99.90;;;;;;5007425;28;20046;-56
2024/03/19 08:40:10;;;;;;;45.65;7.43;;;12.60;99.90;;;;;;5005759;28;20030;-56
2024/03/19 08:42:36;;;;;;;27.55;7.00;;;12.60;99.90;;;;;;4974637;28;20212;-56
2024/03/19 08:45:03;;;;;;;30.38;8.35;;;12.60;99.90;;;;;;5024971;28;20196;-56
2024/03/19 08:47:29;;;;;;;98.13;12.48;;;12.60;99.90;;;;;;5007163;28;20061;-56
2024/03/19 08:49:55;;;;;;;50.58;8.82;;;12.60;99.90;;;;;;4989835;28;20400;-56
2024/03/19 08:52:21;;;;;;;61.17;9.75;;;12.70;99.90;;;;;;5007165;28;20089;-56
2024/03/19 08:54:50;;;;;;;63.53;10.75;;;12.70;99.90;;;;;;4991484;28;20042;-55
2024/03/19 08:57:16;;;;;;;101.97;12.32;;;12.70;99.90;;;;;;5006981;28;20038;-56
2024/03/19 08:59:41;;;;;;;66.40;10.02;;;12.70;99.90;;;;;;5005973;28;20496;-56
2024/03/19 09:02:08;;;;;;;56.28;9.93;;;12.70;99.90;;;;;;5006695;28;20025;-56
2024/03/19 09:04:36;;;;;;;70.07;10.63;;;12.70;99.90;;;;;;4978757;28;20046;-56
2024/03/19 09:07:02;;;;;;;52.28;9.35;;;12.80;99.90;;;;;;5022215;28;20034;-56
2024/03/19 09:09:28;;;;;;;25.90;7.53;;;12.80;99.90;;;;;;5019340;28;20038;-56
2024/03/19 09:11:53;;;;;;;33.47;7.55;;;12.80;99.90;;;;;;5022079;28;20038;-56
2024/03/19 09:14:19;;;;;;;41.05;7.47;;;12.90;99.90;;;;;;5017341;28;20037;-56
2024/03/19 09:16:45;;;;;;;30.48;7.30;;;12.90;99.90;;;;;;4988614;28;20021;-56
2024/03/19 09:19:10;;;;;;;34.42;6.32;;;12.90;99.90;;;;;;4988040;28;20590;-56
2024/03/19 09:21:36;;;;;;;25.85;6.60;;;12.90;99.90;;;;;;4985656;28;20048;-56
2024/03/19 09:24:05;;;;;;;34.30;7.25;;;13.00;99.90;;;;;;4986187;28;20026;-56
2024/03/19 09:26:30;;;;;;;30.45;6.75;;;13.00;99.90;;;;;;5022205;28;20030;-56
2024/03/19 09:28:56;;;;;;;42.53;7.78;;;13.00;99.90;;;;;;4972047;28;20036;-56
2024/03/19 09:31:22;;;;;;;42.65;7.25;;;13.00;99.90;;;;;;5003000;28;20029;-56
2024/03/19 09:33:48;;;;;;;31.45;7.18;;;13.00;99.90;;;;;;4987953;28;20038;-56
2024/03/19 09:36:13;;;;;;;52.17;8.85;;;13.10;99.90;;;;;;4987830;28;20249;-56
2024/03/19 09:38:39;;;;;;;55.63;8.30;;;13.10;99.90;;;;;;5002958;28;20116;-56
2024/03/19 09:41:05;;;;;;;62.05;10.05;;;13.10;99.90;;;;;;5020143;28;20034;-56
2024/03/19 09:43:35;;;;;;;49.33;8.40;;;13.20;99.90;;;;;;4971859;28;20342;-56
2024/03/19 09:46:01;;;;;;;83.65;9.82;;;13.20;99.90;;;;;;5009595;28;20060;-56
2024/03/19 09:48:27;;;;;;;110.05;14.02;;;13.20;99.90;;;;;;5027966;28;20022;-56
2024/03/19 09:50:52;;;;;;;45.03;6.70;;;13.20;99.90;;;;;;5027140;28;20436;-56
2024/03/19 09:53:21;;;;;;;40.40;7.32;;;13.20;99.90;;;;;;4996833;28;20133;-56
2024/03/19 09:55:47;;;;;;;43.78;7.57;;;13.20;99.90;;;;;;4992857;28;20027;-56
2024/03/19 09:58:13;;;;;;;47.13;6.65;;;13.30;99.90;;;;;;5017253;28;20040;-56
2024/03/19 10:00:40;;;;;;;81.32;10.73;;;13.30;99.90;;;;;;5019891;28;20056;-56
2024/03/19 10:03:06;;;;;;;511.88;51.60;;;13.40;99.90;;;;;;4991840;28;20041;-56
2024/03/19 10:05:31;;;;;;;159.52;16.25;;;13.40;99.90;;;;;;4993175;28;20022;-56
2024/03/19 10:07:57;;;;;;;72.00;9.25;;;13.40;99.90;;;;;;5006775;28;20030;-56
2024/03/19 10:10:24;;;;;;;97.18;12.15;;;13.40;99.90;;;;;;4983770;28;20400;-56
2024/03/19 10:12:50;;;;;;;123.55;13.35;;;13.50;99.90;;;;;;4993557;28;20452;-56
2024/03/19 10:15:20;;;;;;;111.82;12.75;;;13.50;99.90;;;;;;5008745;28;20040;-56
2024/03/19 10:17:47;;;;;;;95.88;12.77;;;13.50;99.90;;;;;;5011148;28;20048;-56
2024/03/19 10:20:14;;;;;;;101.68;14.02;;;13.50;99.90;;;;;;4999612;28;20129;-56
2024/03/19 10:22:40;;;;;;;163.98;17.38;;;13.60;99.90;;;;;;5005953;28;20034;-56
2024/03/19 10:25:06;;;;;;;145.07;15.90;;;13.60;99.90;;;;;;4999513;28;20484;-56
2024/03/19 10:27:32;;;;;;;189.82;19.42;;;13.60;99.90;;;;;;5023891;28;20037;-56
2024/03/19 10:29:58;;;;;;;122.72;15.25;;;13.70;99.90;;;;;;5005741;28;20022;-56
2024/03/19 10:32:24;;;;;;;183.60;21.05;;;13.70;99.90;;;;;;4989600;28;20086;-56
2024/03/19 10:34:50;;;;;;;211.25;23.90;;;13.70;99.90;;;;;;5021911;28;20038;-56
2024/03/19 10:37:17;;;;;;;164.75;19.23;;;13.70;99.90;;;;;;4989694;28;20068;-56
2024/03/19 10:39:43;;;;;;;166.27;20.60;;;13.70;99.90;;;;;;5008276;28;20026;-56
2024/03/19 10:42:11;;;;;;;281.08;30.23;;;13.80;99.90;;;;;;4984608;28;20114;-56
2024/03/19 10:44:37;;;;;;;175.65;18.00;;;13.80;99.90;;;;;;5002593;28;20185;-56
2024/03/19 10:47:03;;;;;;;127.72;15.93;;;13.80;99.90;;;;;;4976521;28;20034;-56
2024/03/19 10:49:30;;;;;;;104.43;14.27;;;13.80;99.90;;;;;;4994949;28;20034;-56
2024/03/19 10:52:19;;;;;;;134.43;16.10;;;13.90;99.90;;;;;;4990841;28;20146;-56
2024/03/19 10:54:45;;;;;;;119.47;13.80;;;13.90;99.90;;;;;;4996477;28;20061;-56
2024/03/19 10:57:15;;;;;;;127.80;16.88;;;14.00;99.90;;;;;;4975821;28;20027;-56
2024/03/19 10:59:40;;;;;;;148.93;17.20;;;14.00;99.90;;;;;;5005160;28;20025;-56
2024/03/19 11:02:09;;;;;;;160.40;18.58;;;14.00;99.90;;;;;;4990894;28;20041;-56
2024/03/19 11:04:36;;;;;;;152.70;18.23;;;14.00;99.90;;;;;;5007959;28;20033;-56
2024/03/19 11:07:02;;;;;;;141.05;19.23;;;14.10;99.90;;;;;;5007006;28;20040;-56
2024/03/19 11:09:29;;;;;;;140.52;16.88;;;14.10;99.90;;;;;;5006626;28;20062;-56
2024/03/19 11:11:56;;;;;;;149.32;17.10;;;14.10;99.90;;;;;;4990205;28;20459;-56
2024/03/19 11:14:25;;;;;;;101.63;15.55;;;14.20;99.90;;;;;;5006242;28;20069;-56
2024/03/19 11:16:50;;;;;;;382.38;30.60;;;14.20;99.90;;;;;;5023255;28;20034;-56
2024/03/19 11:19:23;;;;;;;207.98;23.95;;;14.30;99.90;;;;;;4995111;28;20115;-56
2024/03/19 11:21:52;;;;;;;240.98;26.70;;;14.30;99.90;;;;;;5004730;28;20137;-56
2024/03/19 11:24:28;;;;;;;197.00;20.23;;;14.30;99.90;;;;;;5000214;28;20069;-56
2024/03/19 11:26:56;;;;;;;224.38;22.73;;;14.40;99.90;;;;;;5005227;28;20084;-56
2024/03/19 11:29:23;;;;;;;215.90;23.48;;;14.40;99.90;;;;;;5006815;28;20033;-56
2024/03/19 11:31:49;;;;;;;194.77;19.77;;;14.40;99.90;;;;;;4997922;28;20029;-56
2024/03/19 11:34:15;;;;;;;124.63;17.98;;;14.50;99.90;;;;;;5022892;28;20156;-55
2024/03/19 11:36:48;;;;;;;107.60;16.13;;;14.50;99.90;;;;;;5020033;28;20038;-56
2024/03/19 11:39:14;;;;;;;276.45;25.73;;;14.50;99.90;;;;;;4998654;28;20033;-56
2024/03/19 11:41:42;;;;;;;121.63;15.88;;;14.60;99.90;;;;;;5005084;28;20030;-56
2024/03/19 11:44:14;;;;;;;144.07;18.45;;;14.70;99.90;;;;;;4987296;28;20038;-56
2024/03/19 11:46:40;;;;;;;179.40;19.95;;;14.70;99.90;;;;;;4982993;28;20101;-56
2024/03/19 11:49:08;;;;;;;256.08;28.25;;;14.80;99.90;;;;;;5003385;28;20088;-56
2024/03/19 11:51:34;;;;;;;238.52;27.33;;;14.80;99.90;;;;;;4999913;28;20030;-56
2024/03/19 11:54:00;;;;;;;194.82;23.23;;;14.80;99.90;;;;;;4987702;28;20065;-56
2024/03/19 11:56:26;;;;;;;259.00;27.30;;;14.90;99.90;;;;;;4985044;28;20165;-56
2024/03/19 11:58:52;;;;;;;189.75;23.15;;;14.90;99.90;;;;;;4984222;28;20030;-56
2024/03/19 12:01:18;;;;;;;170.02;20.23;;;15.00;99.90;;;;;;5000021;28;20120;-56
2024/03/19 12:03:43;;;;;;;255.35;27.98;;;14.90;99.90;;;;;;5001806;28;20026;-56
2024/03/19 12:06:09;;;;;;;262.67;25.75;;;15.00;99.90;;;;;;4985619;28;20030;-56
2024/03/19 12:08:35;;;;;;;137.15;16.88;;;15.00;99.90;;;;;;4987227;28;20067;-56
2024/03/19 12:11:02;;;;;;;118.35;15.55;;;15.10;99.80;;;;;;5022345;28;20120;-55
2024/03/19 12:13:30;;;;;;;140.85;15.15;;;15.20;99.40;;;;;;4987182;28;20104;-55
2024/03/19 12:15:56;;;;;;;148.80;16.63;;;15.10;99.30;;;;;;5000541;28;20034;-56
2024/03/19 12:18:22;;;;;;;223.15;23.85;;;15.20;99.30;;;;;;4998020;28;20054;-56
2024/03/19 12:20:48;;;;;;;165.10;18.98;;;15.20;99.60;;;;;;5035778;28;20041;-56
2024/03/19 12:23:13;;;;;;;166.77;19.58;;;15.30;99.50;;;;;;4991492;28;20079;-56
2024/03/19 12:25:40;;;;;;;202.40;20.20;;;15.30;99.50;;;;;;4984583;28;20042;-56
2024/03/19 12:28:07;;;;;;;178.00;20.15;;;15.30;99.40;;;;;;5004055;28;20102;-56